sensor_id;sensor_type;location;lat;lon;timestamp;P1;durP1;ratioP1;P2;durP2;ratioP2
25948;SDS011;13961;51.178;4.448;2023-02-28T00:01:10;10.07;;;5.45;;
25948;SDS011;13961;51.178;4.448;2023-02-28T00:03:40;9.35;;;4.90;;
25948;SDS011;13961;51.178;4.448;2023-02-28T00:06:06;9.30;;;5.45;;
25948;SDS011;13961;51.178;4.448;2023-02-28T00:08:34;9.98;;;5.60;;
25948;SDS011;13961;51.178;4.448;2023-02-28T00:11:01;9.13;;;5.07;;
25948;SDS011;13961;51.178;4.448;2023-02-28T00:13:28;15.23;;;5.68;;
25948;SDS011;13961;51.178;4.448;2023-02-28T00:16:04;8.45;;;5.70;;
25948;SDS011;13961;51.178;4.448;2023-02-28T00:18:32;11.98;;;5.65;;
25948;SDS011;13961;51.178;4.448;2023-02-28T00:20:58;9.55;;;5.40;;
25948;SDS011;13961;51.178;4.448;2023-02-28T00:23:24;10.45;;;5.75;;
25948;SDS011;13961;51.178;4.448;2023-02-28T00:25:50;10.68;;;5.53;;
25948;SDS011;13961;51.178;4.448;2023-02-28T00:28:17;10.20;;;6.07;;
25948;SDS011;13961;51.178;4.448;2023-02-28T00:30:43;8.85;;;5.18;;
25948;SDS011;13961;51.178;4.448;2023-02-28T00:33:09;7.28;;;5.32;;
25948;SDS011;13961;51.178;4.448;2023-02-28T00:35:35;8.75;;;5.28;;
25948;SDS011;13961;51.178;4.448;2023-02-28T00:38:00;10.45;;;5.70;;
25948;SDS011;13961;51.178;4.448;2023-02-28T00:40:27;9.45;;;5.43;;
25948;SDS011;13961;51.178;4.448;2023-02-28T00:42:53;11.07;;;5.85;;
25948;SDS011;13961;51.178;4.448;2023-02-28T00:45:19;10.00;;;5.25;;
25948;SDS011;13961;51.178;4.448;2023-02-28T00:47:45;9.40;;;5.47;;
25948;SDS011;13961;51.178;4.448;2023-02-28T00:50:13;9.40;;;5.90;;
25948;SDS011;13961;51.178;4.448;2023-02-28T00:52:39;9.25;;;5.63;;
25948;SDS011;13961;51.178;4.448;2023-02-28T00:55:06;16.13;;;5.85;;
25948;SDS011;13961;51.178;4.448;2023-02-28T00:57:32;11.27;;;5.78;;
25948;SDS011;13961;51.178;4.448;2023-02-28T00:59:58;11.15;;;6.13;;
25948;SDS011;13961;51.178;4.448;2023-02-28T01:02:24;15.15;;;5.68;;
25948;SDS011;13961;51.178;4.448;2023-02-28T01:04:49;10.65;;;5.47;;
25948;SDS011;13961;51.178;4.448;2023-02-28T01:07:17;12.95;;;5.50;;
25948;SDS011;13961;51.178;4.448;2023-02-28T01:09:43;10.98;;;5.65;;
25948;SDS011;13961;51.178;4.448;2023-02-28T01:12:08;10.52;;;6.15;;
25948;SDS011;13961;51.178;4.448;2023-02-28T01:14:35;14.10;;;5.80;;
25948;SDS011;13961;51.178;4.448;2023-02-28T01:17:01;10.32;;;6.13;;
25948;SDS011;13961;51.178;4.448;2023-02-28T01:19:28;11.10;;;5.82;;
25948;SDS011;13961;51.178;4.448;2023-02-28T01:21:56;11.38;;;5.93;;
25948;SDS011;13961;51.178;4.448;2023-02-28T01:24:21;10.10;;;5.85;;
25948;SDS011;13961;51.178;4.448;2023-02-28T01:26:47;11.75;;;5.93;;
25948;SDS011;13961;51.178;4.448;2023-02-28T01:29:14;10.93;;;5.18;;
25948;SDS011;13961;51.178;4.448;2023-02-28T01:31:40;10.02;;;6.10;;
25948;SDS011;13961;51.178;4.448;2023-02-28T01:34:06;9.63;;;5.40;;
25948;SDS011;13961;51.178;4.448;2023-02-28T01:36:31;13.38;;;5.80;;
25948;SDS011;13961;51.178;4.448;2023-02-28T01:38:58;11.77;;;5.40;;
25948;SDS011;13961;51.178;4.448;2023-02-28T01:41:27;8.73;;;5.32;;
25948;SDS011;13961;51.178;4.448;2023-02-28T01:43:59;11.27;;;5.78;;
25948;SDS011;13961;51.178;4.448;2023-02-28T01:46:28;9.98;;;5.90;;
25948;SDS011;13961;51.178;4.448;2023-02-28T01:48:58;10.45;;;6.20;;
25948;SDS011;13961;51.178;4.448;2023-02-28T01:54:20;9.07;;;5.38;;
25948;SDS011;13961;51.178;4.448;2023-02-28T01:56:55;12.43;;;6.03;;
25948;SDS011;13961;51.178;4.448;2023-02-28T01:59:32;12.77;;;5.80;;
25948;SDS011;13961;51.178;4.448;2023-02-28T02:02:11;12.30;;;6.00;;
25948;SDS011;13961;51.178;4.448;2023-02-28T02:04:39;12.10;;;5.50;;
25948;SDS011;13961;51.178;4.448;2023-02-28T02:07:29;15.65;;;5.93;;
25948;SDS011;13961;51.178;4.448;2023-02-28T02:10:24;10.15;;;5.82;;
25948;SDS011;13961;51.178;4.448;2023-02-28T02:13:41;10.00;;;5.63;;
25948;SDS011;13961;51.178;4.448;2023-02-28T02:18:48;8.93;;;4.97;;
25948;SDS011;13961;51.178;4.448;2023-02-28T02:21:56;9.43;;;5.47;;
25948;SDS011;13961;51.178;4.448;2023-02-28T02:24:32;10.00;;;6.20;;
25948;SDS011;13961;51.178;4.448;2023-02-28T02:35:04;8.45;;;5.10;;
25948;SDS011;13961;51.178;4.448;2023-02-28T02:37:50;8.52;;;5.32;;
25948;SDS011;13961;51.178;4.448;2023-02-28T02:40:23;10.77;;;5.45;;
25948;SDS011;13961;51.178;4.448;2023-02-28T02:45:33;9.80;;;5.70;;
25948;SDS011;13961;51.178;4.448;2023-02-28T02:48:05;10.73;;;5.57;;
25948;SDS011;13961;51.178;4.448;2023-02-28T02:50:38;10.30;;;5.47;;
25948;SDS011;13961;51.178;4.448;2023-02-28T02:53:08;9.18;;;5.05;;
25948;SDS011;13961;51.178;4.448;2023-02-28T02:55:38;11.45;;;5.40;;
25948;SDS011;13961;51.178;4.448;2023-02-28T02:58:16;11.95;;;5.72;;
25948;SDS011;13961;51.178;4.448;2023-02-28T03:00:46;11.77;;;5.57;;
25948;SDS011;13961;51.178;4.448;2023-02-28T03:03:15;10.00;;;5.43;;
25948;SDS011;13961;51.178;4.448;2023-02-28T03:05:49;9.85;;;5.70;;
25948;SDS011;13961;51.178;4.448;2023-02-28T03:08:16;14.05;;;5.93;;
25948;SDS011;13961;51.178;4.448;2023-02-28T03:10:45;10.10;;;6.15;;
25948;SDS011;13961;51.178;4.448;2023-02-28T03:19:28;11.38;;;5.97;;
25948;SDS011;13961;51.178;4.448;2023-02-28T03:27:27;12.20;;;5.97;;
25948;SDS011;13961;51.178;4.448;2023-02-28T03:30:00;10.05;;;5.45;;
25948;SDS011;13961;51.178;4.448;2023-02-28T03:32:42;10.05;;;5.90;;
25948;SDS011;13961;51.178;4.448;2023-02-28T03:35:21;9.13;;;4.50;;
25948;SDS011;13961;51.178;4.448;2023-02-28T03:37:50;9.65;;;5.65;;
25948;SDS011;13961;51.178;4.448;2023-02-28T03:40:28;11.77;;;5.65;;
25948;SDS011;13961;51.178;4.448;2023-02-28T03:42:59;9.52;;;5.22;;
25948;SDS011;13961;51.178;4.448;2023-02-28T03:45:28;10.80;;;5.75;;
25948;SDS011;13961;51.178;4.448;2023-02-28T03:47:58;9.52;;;5.75;;
25948;SDS011;13961;51.178;4.448;2023-02-28T03:53:02;8.70;;;5.68;;
25948;SDS011;13961;51.178;4.448;2023-02-28T03:55:39;11.10;;;5.70;;
25948;SDS011;13961;51.178;4.448;2023-02-28T04:01:05;8.13;;;5.30;;
25948;SDS011;13961;51.178;4.448;2023-02-28T04:03:37;12.98;;;5.90;;
25948;SDS011;13961;51.178;4.448;2023-02-28T04:06:05;8.77;;;5.43;;
25948;SDS011;13961;51.178;4.448;2023-02-28T04:08:33;10.63;;;5.68;;
25948;SDS011;13961;51.178;4.448;2023-02-28T04:11:15;9.90;;;5.60;;
25948;SDS011;13961;51.178;4.448;2023-02-28T04:13:45;11.27;;;6.15;;
25948;SDS011;13961;51.178;4.448;2023-02-28T04:16:11;12.60;;;5.53;;
25948;SDS011;13961;51.178;4.448;2023-02-28T04:18:37;9.98;;;5.82;;
25948;SDS011;13961;51.178;4.448;2023-02-28T04:21:04;11.65;;;6.00;;
25948;SDS011;13961;51.178;4.448;2023-02-28T04:23:31;10.30;;;6.05;;
25948;SDS011;13961;51.178;4.448;2023-02-28T04:25:58;10.85;;;5.50;;
25948;SDS011;13961;51.178;4.448;2023-02-28T04:28:23;10.07;;;5.70;;
25948;SDS011;13961;51.178;4.448;2023-02-28T04:30:56;10.68;;;5.85;;
25948;SDS011;13961;51.178;4.448;2023-02-28T04:33:23;12.20;;;5.85;;
25948;SDS011;13961;51.178;4.448;2023-02-28T04:35:57;11.27;;;5.75;;
25948;SDS011;13961;51.178;4.448;2023-02-28T04:38:24;12.15;;;5.50;;
25948;SDS011;13961;51.178;4.448;2023-02-28T04:40:49;9.10;;;5.20;;
25948;SDS011;13961;51.178;4.448;2023-02-28T04:43:16;10.55;;;5.95;;
25948;SDS011;13961;51.178;4.448;2023-02-28T04:45:42;9.45;;;5.20;;
25948;SDS011;13961;51.178;4.448;2023-02-28T04:48:09;9.00;;;5.05;;
25948;SDS011;13961;51.178;4.448;2023-02-28T04:50:34;11.40;;;5.88;;
25948;SDS011;13961;51.178;4.448;2023-02-28T04:53:00;10.77;;;5.80;;
25948;SDS011;13961;51.178;4.448;2023-02-28T04:55:27;8.65;;;5.65;;
25948;SDS011;13961;51.178;4.448;2023-02-28T04:57:53;10.52;;;5.25;;
25948;SDS011;13961;51.178;4.448;2023-02-28T05:00:19;8.90;;;4.95;;
25948;SDS011;13961;51.178;4.448;2023-02-28T05:02:45;12.35;;;5.68;;
25948;SDS011;13961;51.178;4.448;2023-02-28T05:05:11;9.80;;;5.32;;
25948;SDS011;13961;51.178;4.448;2023-02-28T05:07:43;13.93;;;4.77;;
25948;SDS011;13961;51.178;4.448;2023-02-28T05:10:10;13.07;;;6.53;;
25948;SDS011;13961;51.178;4.448;2023-02-28T05:12:37;9.70;;;5.03;;
25948;SDS011;13961;51.178;4.448;2023-02-28T05:15:04;9.82;;;5.53;;
25948;SDS011;13961;51.178;4.448;2023-02-28T05:17:30;10.40;;;5.60;;
25948;SDS011;13961;51.178;4.448;2023-02-28T05:19:56;14.77;;;5.60;;
25948;SDS011;13961;51.178;4.448;2023-02-28T05:22:22;9.07;;;5.97;;
25948;SDS011;13961;51.178;4.448;2023-02-28T05:24:48;11.65;;;5.38;;
25948;SDS011;13961;51.178;4.448;2023-02-28T05:27:13;7.85;;;4.50;;
25948;SDS011;13961;51.178;4.448;2023-02-28T05:29:39;8.00;;;4.68;;
25948;SDS011;13961;51.178;4.448;2023-02-28T05:32:10;8.95;;;5.30;;
25948;SDS011;13961;51.178;4.448;2023-02-28T05:34:37;9.98;;;5.00;;
25948;SDS011;13961;51.178;4.448;2023-02-28T05:37:04;14.13;;;5.38;;
25948;SDS011;13961;51.178;4.448;2023-02-28T05:39:31;10.10;;;5.40;;
25948;SDS011;13961;51.178;4.448;2023-02-28T05:41:58;8.45;;;5.20;;
25948;SDS011;13961;51.178;4.448;2023-02-28T05:44:24;10.27;;;5.40;;
25948;SDS011;13961;51.178;4.448;2023-02-28T05:46:53;10.25;;;5.05;;
25948;SDS011;13961;51.178;4.448;2023-02-28T05:49:18;10.48;;;5.07;;
25948;SDS011;13961;51.178;4.448;2023-02-28T05:51:46;8.93;;;5.03;;
25948;SDS011;13961;51.178;4.448;2023-02-28T05:54:12;10.15;;;4.95;;
25948;SDS011;13961;51.178;4.448;2023-02-28T05:56:37;8.85;;;5.28;;
25948;SDS011;13961;51.178;4.448;2023-02-28T05:59:05;9.77;;;5.38;;
25948;SDS011;13961;51.178;4.448;2023-02-28T06:01:32;12.52;;;5.05;;
25948;SDS011;13961;51.178;4.448;2023-02-28T06:04:00;10.10;;;5.57;;
25948;SDS011;13961;51.178;4.448;2023-02-28T06:06:28;9.77;;;5.07;;
25948;SDS011;13961;51.178;4.448;2023-02-28T06:08:59;10.35;;;4.90;;
25948;SDS011;13961;51.178;4.448;2023-02-28T06:11:27;9.88;;;5.45;;
25948;SDS011;13961;51.178;4.448;2023-02-28T06:13:54;9.40;;;4.97;;
25948;SDS011;13961;51.178;4.448;2023-02-28T06:16:25;11.55;;;5.32;;
25948;SDS011;13961;51.178;4.448;2023-02-28T06:18:51;10.90;;;5.22;;
25948;SDS011;13961;51.178;4.448;2023-02-28T06:21:29;8.27;;;4.93;;
25948;SDS011;13961;51.178;4.448;2023-02-28T06:23:56;8.70;;;5.13;;
25948;SDS011;13961;51.178;4.448;2023-02-28T06:26:22;10.18;;;4.80;;
25948;SDS011;13961;51.178;4.448;2023-02-28T06:28:51;14.32;;;5.05;;
25948;SDS011;13961;51.178;4.448;2023-02-28T06:31:18;9.27;;;5.03;;
25948;SDS011;13961;51.178;4.448;2023-02-28T06:33:47;12.52;;;6.28;;
25948;SDS011;13961;51.178;4.448;2023-02-28T06:36:13;12.00;;;5.65;;
25948;SDS011;13961;51.178;4.448;2023-02-28T06:38:41;10.60;;;5.28;;
25948;SDS011;13961;51.178;4.448;2023-02-28T06:41:08;8.82;;;5.32;;
25948;SDS011;13961;51.178;4.448;2023-02-28T06:43:35;8.82;;;5.03;;
25948;SDS011;13961;51.178;4.448;2023-02-28T06:46:04;10.45;;;5.60;;
25948;SDS011;13961;51.178;4.448;2023-02-28T06:48:31;15.40;;;5.38;;
25948;SDS011;13961;51.178;4.448;2023-02-28T06:51:07;13.27;;;5.35;;
25948;SDS011;13961;51.178;4.448;2023-02-28T06:53:35;10.60;;;5.28;;
25948;SDS011;13961;51.178;4.448;2023-02-28T06:56:08;9.95;;;5.38;;
25948;SDS011;13961;51.178;4.448;2023-02-28T06:58:38;12.98;;;5.47;;
25948;SDS011;13961;51.178;4.448;2023-02-28T07:01:06;9.45;;;5.20;;
25948;SDS011;13961;51.178;4.448;2023-02-28T07:03:34;9.77;;;4.68;;
25948;SDS011;13961;51.178;4.448;2023-02-28T07:06:00;10.02;;;5.57;;
25948;SDS011;13961;51.178;4.448;2023-02-28T07:08:27;9.82;;;4.93;;
25948;SDS011;13961;51.178;4.448;2023-02-28T07:10:53;8.77;;;5.05;;
25948;SDS011;13961;51.178;4.448;2023-02-28T07:13:21;13.30;;;5.85;;
25948;SDS011;13961;51.178;4.448;2023-02-28T07:16:01;11.32;;;5.50;;
25948;SDS011;13961;51.178;4.448;2023-02-28T07:18:29;12.10;;;5.15;;
25948;SDS011;13961;51.178;4.448;2023-02-28T07:20:55;10.68;;;5.35;;
25948;SDS011;13961;51.178;4.448;2023-02-28T07:23:21;11.63;;;5.28;;
25948;SDS011;13961;51.178;4.448;2023-02-28T07:25:47;11.38;;;5.25;;
25948;SDS011;13961;51.178;4.448;2023-02-28T07:28:14;9.73;;;5.13;;
25948;SDS011;13961;51.178;4.448;2023-02-28T07:30:41;9.85;;;4.97;;
25948;SDS011;13961;51.178;4.448;2023-02-28T07:33:07;9.13;;;4.55;;
25948;SDS011;13961;51.178;4.448;2023-02-28T07:35:33;8.35;;;4.53;;
25948;SDS011;13961;51.178;4.448;2023-02-28T07:37:59;11.05;;;4.38;;
25948;SDS011;13961;51.178;4.448;2023-02-28T07:40:26;10.57;;;5.10;;
25948;SDS011;13961;51.178;4.448;2023-02-28T07:42:52;8.15;;;4.63;;
25948;SDS011;13961;51.178;4.448;2023-02-28T07:45:18;9.20;;;4.63;;
25948;SDS011;13961;51.178;4.448;2023-02-28T07:47:44;13.90;;;5.80;;
25948;SDS011;13961;51.178;4.448;2023-02-28T07:50:12;13.52;;;4.55;;
25948;SDS011;13961;51.178;4.448;2023-02-28T07:52:39;9.70;;;5.15;;
25948;SDS011;13961;51.178;4.448;2023-02-28T07:55:06;5.85;;;4.15;;
25948;SDS011;13961;51.178;4.448;2023-02-28T07:57:34;7.13;;;4.30;;
25948;SDS011;13961;51.178;4.448;2023-02-28T08:00:00;8.73;;;4.88;;
25948;SDS011;13961;51.178;4.448;2023-02-28T08:02:25;8.77;;;4.15;;
25948;SDS011;13961;51.178;4.448;2023-02-28T08:04:51;8.38;;;4.35;;
25948;SDS011;13961;51.178;4.448;2023-02-28T08:07:17;6.43;;;3.85;;
25948;SDS011;13961;51.178;4.448;2023-02-28T08:09:43;6.10;;;3.97;;
25948;SDS011;13961;51.178;4.448;2023-02-28T08:12:10;10.48;;;4.45;;
25948;SDS011;13961;51.178;4.448;2023-02-28T08:14:36;7.15;;;4.00;;
25948;SDS011;13961;51.178;4.448;2023-02-28T08:17:03;8.98;;;4.53;;
25948;SDS011;13961;51.178;4.448;2023-02-28T08:19:29;8.27;;;4.47;;
25948;SDS011;13961;51.178;4.448;2023-02-28T08:21:55;7.43;;;4.53;;
25948;SDS011;13961;51.178;4.448;2023-02-28T08:24:21;6.82;;;3.97;;
25948;SDS011;13961;51.178;4.448;2023-02-28T08:26:47;7.03;;;3.65;;
25948;SDS011;13961;51.178;4.448;2023-02-28T08:29:13;9.43;;;3.80;;
25948;SDS011;13961;51.178;4.448;2023-02-28T08:31:38;8.75;;;4.20;;
25948;SDS011;13961;51.178;4.448;2023-02-28T08:34:08;5.75;;;3.40;;
25948;SDS011;13961;51.178;4.448;2023-02-28T08:36:36;11.50;;;4.40;;
25948;SDS011;13961;51.178;4.448;2023-02-28T08:39:02;6.25;;;3.50;;
25948;SDS011;13961;51.178;4.448;2023-02-28T08:41:28;7.55;;;3.65;;
25948;SDS011;13961;51.178;4.448;2023-02-28T08:43:54;8.63;;;4.00;;
25948;SDS011;13961;51.178;4.448;2023-02-28T08:46:20;8.10;;;3.60;;
25948;SDS011;13961;51.178;4.448;2023-02-28T08:48:45;8.48;;;3.78;;
25948;SDS011;13961;51.178;4.448;2023-02-28T08:51:15;9.45;;;3.78;;
25948;SDS011;13961;51.178;4.448;2023-02-28T08:53:43;6.40;;;2.90;;
25948;SDS011;13961;51.178;4.448;2023-02-28T08:56:14;7.22;;;3.47;;
25948;SDS011;13961;51.178;4.448;2023-02-28T08:58:41;6.10;;;3.40;;
25948;SDS011;13961;51.178;4.448;2023-02-28T09:01:09;5.07;;;3.03;;
25948;SDS011;13961;51.178;4.448;2023-02-28T09:03:36;3.63;;;2.67;;
25948;SDS011;13961;51.178;4.448;2023-02-28T09:06:03;5.85;;;2.88;;
25948;SDS011;13961;51.178;4.448;2023-02-28T09:08:30;3.63;;;2.70;;
25948;SDS011;13961;51.178;4.448;2023-02-28T09:10:57;3.92;;;2.53;;
25948;SDS011;13961;51.178;4.448;2023-02-28T09:13:24;5.28;;;2.85;;
25948;SDS011;13961;51.178;4.448;2023-02-28T09:15:51;3.83;;;2.42;;
25948;SDS011;13961;51.178;4.448;2023-02-28T09:18:17;5.43;;;2.28;;
25948;SDS011;13961;51.178;4.448;2023-02-28T09:20:42;6.47;;;2.70;;
25948;SDS011;13961;51.178;4.448;2023-02-28T09:23:10;5.90;;;3.10;;
25948;SDS011;13961;51.178;4.448;2023-02-28T09:25:37;7.15;;;2.67;;
25948;SDS011;13961;51.178;4.448;2023-02-28T09:28:03;6.68;;;2.60;;
25948;SDS011;13961;51.178;4.448;2023-02-28T09:30:29;5.78;;;2.90;;
25948;SDS011;13961;51.178;4.448;2023-02-28T09:32:56;4.13;;;2.72;;
25948;SDS011;13961;51.178;4.448;2023-02-28T09:35:22;6.47;;;2.78;;
25948;SDS011;13961;51.178;4.448;2023-02-28T09:37:49;4.80;;;2.83;;
25948;SDS011;13961;51.178;4.448;2023-02-28T09:40:16;5.57;;;2.83;;
25948;SDS011;13961;51.178;4.448;2023-02-28T09:42:45;4.32;;;2.72;;
25948;SDS011;13961;51.178;4.448;2023-02-28T09:45:23;4.15;;;1.88;;
25948;SDS011;13961;51.178;4.448;2023-02-28T09:47:50;2.88;;;1.70;;
25948;SDS011;13961;51.178;4.448;2023-02-28T09:53:21;3.70;;;1.63;;
25948;SDS011;13961;51.178;4.448;2023-02-28T09:55:54;2.83;;;1.73;;
25948;SDS011;13961;51.178;4.448;2023-02-28T09:58:26;3.53;;;1.98;;
25948;SDS011;13961;51.178;4.448;2023-02-28T10:01:02;2.22;;;1.20;;
25948;SDS011;13961;51.178;4.448;2023-02-28T10:03:47;2.03;;;1.33;;
25948;SDS011;13961;51.178;4.448;2023-02-28T10:06:22;4.35;;;1.67;;
25948;SDS011;13961;51.178;4.448;2023-02-28T10:09:06;4.47;;;1.80;;
25948;SDS011;13961;51.178;4.448;2023-02-28T10:14:21;3.45;;;1.60;;
25948;SDS011;13961;51.178;4.448;2023-02-28T10:16:53;2.60;;;1.35;;
25948;SDS011;13961;51.178;4.448;2023-02-28T10:19:42;1.30;;;1.20;;
25948;SDS011;13961;51.178;4.448;2023-02-28T10:22:51;2.20;;;1.60;;
25948;SDS011;13961;51.178;4.448;2023-02-28T10:25:22;3.28;;;1.55;;
25948;SDS011;13961;51.178;4.448;2023-02-28T10:27:57;2.45;;;1.60;;
25948;SDS011;13961;51.178;4.448;2023-02-28T10:30:40;2.47;;;1.50;;
25948;SDS011;13961;51.178;4.448;2023-02-28T10:33:15;3.50;;;1.55;;
25948;SDS011;13961;51.178;4.448;2023-02-28T10:35:43;2.00;;;1.60;;
25948;SDS011;13961;51.178;4.448;2023-02-28T10:38:14;3.47;;;1.90;;
25948;SDS011;13961;51.178;4.448;2023-02-28T10:40:43;2.33;;;1.50;;
25948;SDS011;13961;51.178;4.448;2023-02-28T10:46:02;2.37;;;1.30;;
25948;SDS011;13961;51.178;4.448;2023-02-28T10:48:30;1.85;;;1.50;;
25948;SDS011;13961;51.178;4.448;2023-02-28T10:51:07;3.15;;;1.50;;
25948;SDS011;13961;51.178;4.448;2023-02-28T10:53:49;1.45;;;1.15;;
25948;SDS011;13961;51.178;4.448;2023-02-28T10:56:17;4.40;;;1.55;;
25948;SDS011;13961;51.178;4.448;2023-02-28T11:01:46;3.60;;;1.40;;
25948;SDS011;13961;51.178;4.448;2023-02-28T11:06:56;2.38;;;1.40;;
25948;SDS011;13961;51.178;4.448;2023-02-28T11:09:33;1.75;;;1.23;;
25948;SDS011;13961;51.178;4.448;2023-02-28T11:12:04;3.38;;;1.70;;
25948;SDS011;13961;51.178;4.448;2023-02-28T11:14:40;1.98;;;1.58;;
25948;SDS011;13961;51.178;4.448;2023-02-28T11:17:23;3.05;;;1.63;;
25948;SDS011;13961;51.178;4.448;2023-02-28T11:19:51;2.13;;;1.27;;
25948;SDS011;13961;51.178;4.448;2023-02-28T11:22:22;2.30;;;1.50;;
25948;SDS011;13961;51.178;4.448;2023-02-28T11:24:54;2.40;;;1.30;;
25948;SDS011;13961;51.178;4.448;2023-02-28T11:29:54;1.40;;;1.30;;
25948;SDS011;13961;51.178;4.448;2023-02-28T11:32:21;1.85;;;1.40;;
25948;SDS011;13961;51.178;4.448;2023-02-28T11:35:12;2.40;;;1.27;;
25948;SDS011;13961;51.178;4.448;2023-02-28T11:37:44;2.78;;;1.83;;
25948;SDS011;13961;51.178;4.448;2023-02-28T11:40:14;5.18;;;1.70;;
25948;SDS011;13961;51.178;4.448;2023-02-28T11:42:57;1.80;;;1.25;;
25948;SDS011;13961;51.178;4.448;2023-02-28T11:45:44;3.28;;;1.20;;
25948;SDS011;13961;51.178;4.448;2023-02-28T11:48:23;4.32;;;1.48;;
25948;SDS011;13961;51.178;4.448;2023-02-28T11:53:45;2.25;;;1.50;;
25948;SDS011;13961;51.178;4.448;2023-02-28T11:56:36;3.10;;;1.30;;
25948;SDS011;13961;51.178;4.448;2023-02-28T12:07:27;3.05;;;1.38;;
25948;SDS011;13961;51.178;4.448;2023-02-28T12:10:21;2.25;;;1.50;;
25948;SDS011;13961;51.178;4.448;2023-02-28T12:21:04;2.05;;;1.48;;
25948;SDS011;13961;51.178;4.448;2023-02-28T12:23:58;1.90;;;1.42;;
25948;SDS011;13961;51.178;4.448;2023-02-28T12:31:53;1.88;;;1.52;;
25948;SDS011;13961;51.178;4.448;2023-02-28T12:34:22;4.07;;;1.70;;
25948;SDS011;13961;51.178;4.448;2023-02-28T12:36:53;2.65;;;1.70;;
25948;SDS011;13961;51.178;4.448;2023-02-28T12:39:26;3.40;;;1.75;;
25948;SDS011;13961;51.178;4.448;2023-02-28T12:41:59;3.60;;;2.22;;
25948;SDS011;13961;51.178;4.448;2023-02-28T12:44:34;1.35;;;1.25;;
25948;SDS011;13961;51.178;4.448;2023-02-28T12:47:02;2.33;;;1.40;;
25948;SDS011;13961;51.178;4.448;2023-02-28T12:49:31;2.50;;;1.67;;
25948;SDS011;13961;51.178;4.448;2023-02-28T12:52:07;2.03;;;1.67;;
25948;SDS011;13961;51.178;4.448;2023-02-28T13:00:17;2.47;;;2.00;;
25948;SDS011;13961;51.178;4.448;2023-02-28T13:11:01;2.33;;;1.83;;
25948;SDS011;13961;51.178;4.448;2023-02-28T13:13:28;3.15;;;1.90;;
25948;SDS011;13961;51.178;4.448;2023-02-28T13:16:06;4.13;;;2.25;;
25948;SDS011;13961;51.178;4.448;2023-02-28T13:18:37;2.83;;;2.20;;
25948;SDS011;13961;51.178;4.448;2023-02-28T13:21:23;5.15;;;2.25;;
25948;SDS011;13961;51.178;4.448;2023-02-28T13:26:24;2.45;;;1.92;;
25948;SDS011;13961;51.178;4.448;2023-02-28T13:34:31;3.05;;;1.70;;
25948;SDS011;13961;51.178;4.448;2023-02-28T13:37:46;3.78;;;2.58;;
25948;SDS011;13961;51.178;4.448;2023-02-28T13:42:34;3.30;;;1.95;;
25948;SDS011;13961;51.178;4.448;2023-02-28T13:58:33;5.88;;;2.53;;
25948;SDS011;13961;51.178;4.448;2023-02-28T14:04:04;3.33;;;2.35;;
25948;SDS011;13961;51.178;4.448;2023-02-28T14:06:53;2.63;;;2.00;;
25948;SDS011;13961;51.178;4.448;2023-02-28T14:18:24;2.92;;;2.30;;
25948;SDS011;13961;51.178;4.448;2023-02-28T14:20:54;3.00;;;2.00;;
25948;SDS011;13961;51.178;4.448;2023-02-28T14:26:25;4.13;;;2.50;;
25948;SDS011;13961;51.178;4.448;2023-02-28T14:29:21;4.03;;;2.30;;
25948;SDS011;13961;51.178;4.448;2023-02-28T14:32:03;3.60;;;2.30;;
25948;SDS011;13961;51.178;4.448;2023-02-28T14:37:20;5.20;;;2.35;;
25948;SDS011;13961;51.178;4.448;2023-02-28T14:39:53;3.22;;;2.10;;
25948;SDS011;13961;51.178;4.448;2023-02-28T14:42:26;4.55;;;2.53;;
25948;SDS011;13961;51.178;4.448;2023-02-28T14:44:59;3.70;;;2.08;;
25948;SDS011;13961;51.178;4.448;2023-02-28T14:47:30;5.13;;;2.30;;
25948;SDS011;13961;51.178;4.448;2023-02-28T14:49:58;3.90;;;2.05;;
25948;SDS011;13961;51.178;4.448;2023-02-28T14:52:29;2.58;;;2.20;;
25948;SDS011;13961;51.178;4.448;2023-02-28T14:57:33;3.95;;;2.30;;
25948;SDS011;13961;51.178;4.448;2023-02-28T15:00:47;3.33;;;2.40;;
25948;SDS011;13961;51.178;4.448;2023-02-28T15:02:55;4.53;;;2.35;;
25948;SDS011;13961;51.178;4.448;2023-02-28T15:08:10;2.30;;;2.10;;
25948;SDS011;13961;51.178;4.448;2023-02-28T15:10:44;4.00;;;2.60;;
25948;SDS011;13961;51.178;4.448;2023-02-28T15:13:16;4.18;;;2.58;;
25948;SDS011;13961;51.178;4.448;2023-02-28T15:21:14;4.68;;;2.70;;
25948;SDS011;13961;51.178;4.448;2023-02-28T15:23:44;4.95;;;2.83;;
25948;SDS011;13961;51.178;4.448;2023-02-28T15:26:14;3.95;;;2.65;;
25948;SDS011;13961;51.178;4.448;2023-02-28T15:28:43;4.97;;;2.47;;
25948;SDS011;13961;51.178;4.448;2023-02-28T15:31:23;3.33;;;2.70;;
25948;SDS011;13961;51.178;4.448;2023-02-28T15:33:54;3.90;;;2.30;;
25948;SDS011;13961;51.178;4.448;2023-02-28T15:36:20;4.13;;;2.70;;
25948;SDS011;13961;51.178;4.448;2023-02-28T15:38:54;5.10;;;2.90;;
25948;SDS011;13961;51.178;4.448;2023-02-28T15:41:27;4.32;;;2.92;;
25948;SDS011;13961;51.178;4.448;2023-02-28T15:44:14;4.38;;;2.72;;
25948;SDS011;13961;51.178;4.448;2023-02-28T15:46:56;6.68;;;2.70;;
25948;SDS011;13961;51.178;4.448;2023-02-28T15:49:49;4.57;;;2.30;;
25948;SDS011;13961;51.178;4.448;2023-02-28T15:52:29;3.03;;;2.53;;
25948;SDS011;13961;51.178;4.448;2023-02-28T15:55:08;5.25;;;2.80;;
25948;SDS011;13961;51.178;4.448;2023-02-28T15:57:45;7.30;;;2.72;;
25948;SDS011;13961;51.178;4.448;2023-02-28T16:00:16;4.55;;;2.65;;
25948;SDS011;13961;51.178;4.448;2023-02-28T16:02:45;3.83;;;2.30;;
25948;SDS011;13961;51.178;4.448;2023-02-28T16:07:38;3.47;;;2.35;;
25948;SDS011;13961;51.178;4.448;2023-02-28T16:10:05;4.88;;;2.50;;
25948;SDS011;13961;51.178;4.448;2023-02-28T16:12:33;3.47;;;2.40;;
25948;SDS011;13961;51.178;4.448;2023-02-28T16:15:02;5.40;;;2.75;;
25948;SDS011;13961;51.178;4.448;2023-02-28T16:17:34;3.95;;;2.60;;
25948;SDS011;13961;51.178;4.448;2023-02-28T16:20:06;7.13;;;3.55;;
25948;SDS011;13961;51.178;4.448;2023-02-28T16:22:38;2.45;;;2.20;;
25948;SDS011;13961;51.178;4.448;2023-02-28T16:25:04;4.10;;;2.72;;
25948;SDS011;13961;51.178;4.448;2023-02-28T16:27:35;5.68;;;2.67;;
25948;SDS011;13961;51.178;4.448;2023-02-28T16:30:03;4.68;;;2.72;;
25948;SDS011;13961;51.178;4.448;2023-02-28T16:32:30;4.35;;;2.90;;
25948;SDS011;13961;51.178;4.448;2023-02-28T16:34:59;6.68;;;2.70;;
25948;SDS011;13961;51.178;4.448;2023-02-28T16:37:26;2.92;;;2.50;;
25948;SDS011;13961;51.178;4.448;2023-02-28T16:39:53;3.47;;;2.50;;
25948;SDS011;13961;51.178;4.448;2023-02-28T16:42:23;9.85;;;3.55;;
25948;SDS011;13961;51.178;4.448;2023-02-28T16:44:51;4.23;;;2.87;;
25948;SDS011;13961;51.178;4.448;2023-02-28T16:47:18;5.75;;;3.15;;
25948;SDS011;13961;51.178;4.448;2023-02-28T16:49:44;12.02;;;4.47;;
25948;SDS011;13961;51.178;4.448;2023-02-28T16:52:10;4.18;;;2.83;;
25948;SDS011;13961;51.178;4.448;2023-02-28T16:54:39;3.50;;;2.70;;
25948;SDS011;13961;51.178;4.448;2023-02-28T16:57:08;6.00;;;2.95;;
25948;SDS011;13961;51.178;4.448;2023-02-28T16:59:51;5.25;;;3.20;;
25948;SDS011;13961;51.178;4.448;2023-02-28T17:02:17;4.45;;;2.85;;
25948;SDS011;13961;51.178;4.448;2023-02-28T17:04:47;5.03;;;2.95;;
25948;SDS011;13961;51.178;4.448;2023-02-28T17:07:14;13.75;;;6.00;;
25948;SDS011;13961;51.178;4.448;2023-02-28T17:09:44;3.75;;;2.90;;
25948;SDS011;13961;51.178;4.448;2023-02-28T17:12:13;5.20;;;3.55;;
25948;SDS011;13961;51.178;4.448;2023-02-28T17:14:41;6.22;;;3.20;;
25948;SDS011;13961;51.178;4.448;2023-02-28T17:17:07;5.75;;;3.50;;
25948;SDS011;13961;51.178;4.448;2023-02-28T17:19:35;4.88;;;3.00;;
25948;SDS011;13961;51.178;4.448;2023-02-28T17:22:04;5.45;;;3.38;;
25948;SDS011;13961;51.178;4.448;2023-02-28T17:24:29;9.85;;;3.90;;
25948;SDS011;13961;51.178;4.448;2023-02-28T17:27:00;8.98;;;3.88;;